createdAt,value
2017-01-18T00:00:09.044Z,91.91
2017-01-18T00:01:09.801Z,91.72
2017-01-18T00:02:10.537Z,91.62
2017-01-18T00:03:11.286Z,92.1
2017-01-18T00:04:12.032Z,92.57
2017-01-18T00:05:12.795Z,91.72
2017-01-18T00:06:13.547Z,91.91
2017-01-18T00:07:14.283Z,91.91
2017-01-18T00:08:15.030Z,91.81
2017-01-18T00:09:15.788Z,92
2017-01-18T00:10:16.557Z,91.15
2017-01-18T00:11:17.303Z,91.34
2017-01-18T00:12:18.037Z,91.34
2017-01-18T00:13:18.792Z,92.1
2017-01-18T00:14:19.543Z,92
2017-01-18T00:15:20.289Z,91.43
2017-01-18T00:16:21.086Z,91.43
2017-01-18T00:17:21.844Z,91.15
2017-01-18T00:18:22.588Z,91.05
2017-01-18T00:19:23.348Z,90.86
2017-01-18T00:20:24.100Z,90.77
2017-01-18T00:21:24.843Z,90.86
2017-01-18T00:22:25.618Z,90.77
2017-01-18T00:23:26.361Z,90.86
2017-01-18T00:24:27.109Z,91.34
2017-01-18T00:25:27.908Z,90.96
2017-01-18T00:26:28.662Z,92.29
2017-01-18T00:27:29.432Z,92.1
2017-01-18T00:28:30.166Z,92
2017-01-18T00:29:30.935Z,92
2017-01-18T00:30:31.675Z,92.1
2017-01-18T00:31:32.423Z,91.91
2017-01-18T00:32:33.158Z,92
2017-01-18T00:33:33.895Z,92.29
2017-01-18T00:34:34.643Z,92.38
2017-01-18T00:35:35.380Z,92.38
2017-01-18T00:36:36.136Z,92.57
2017-01-18T00:37:36.893Z,92.76
2017-01-18T00:38:37.639Z,92.94
2017-01-18T00:39:38.406Z,92.8
2017-01-18T00:40:39.148Z,93.09
2017-01-18T00:41:39.912Z,93.23
2017-01-18T00:42:40.663Z,93.09
2017-01-18T00:43:41.411Z,93.23
2017-01-18T00:44:42.151Z,93.13
2017-01-18T00:45:42.893Z,92.8
2017-01-18T00:46:43.650Z,92.99
2017-01-18T00:47:44.405Z,93.66
2017-01-18T00:48:45.149Z,93.28
2017-01-18T00:49:45.900Z,93.37
2017-01-18T00:50:46.645Z,93.61
2017-01-18T00:51:47.420Z,93.75
2017-01-18T00:52:48.201Z,93.51
2017-01-18T00:53:48.952Z,93.61
2017-01-18T00:54:49.701Z,93.7
2017-01-18T00:55:50.451Z,93.13
2017-01-18T00:56:51.206Z,93.09
2017-01-18T00:57:51.955Z,92.99
2017-01-18T00:58:52.704Z,93.09
2017-01-18T00:59:53.448Z,93.75
2017-01-18T01:00:54.215Z,93.7
2017-01-18T01:01:54.970Z,93.37
2017-01-18T01:02:55.719Z,93.99
2017-01-18T01:03:56.472Z,93.37
2017-01-18T01:04:57.225Z,93.75
2017-01-18T01:05:57.975Z,93.8
2017-01-18T01:06:58.727Z,93.66
2017-01-18T01:07:59.496Z,93.7
2017-01-18T01:09:00.285Z,93.94
2017-01-18T01:10:01.037Z,93.56
2017-01-18T01:11:01.773Z,93.84
2017-01-18T01:12:02.520Z,93.28
2017-01-18T01:13:03.276Z,93.66
2017-01-18T01:14:04.052Z,93.84
2017-01-18T01:15:04.801Z,93.75
2017-01-18T01:16:05.545Z,93.99
2017-01-18T01:17:06.292Z,93.89
2017-01-18T01:18:07.049Z,93.66
2017-01-18T01:19:07.800Z,93.66
2017-01-18T01:20:08.531Z,93.99
2017-01-18T01:21:09.269Z,93.89
2017-01-18T01:22:10.021Z,93.7
2017-01-18T01:23:10.765Z,93.56
2017-01-18T01:24:11.513Z,93.66
2017-01-18T01:25:12.280Z,93.8
2017-01-18T01:26:13.051Z,93.94
2017-01-18T01:27:13.808Z,93.89
2017-01-18T01:28:14.558Z,93.56
2017-01-18T01:29:15.309Z,93.37
2017-01-18T01:30:16.048Z,93.28
2017-01-18T01:31:16.808Z,94.03
2017-01-18T01:32:17.555Z,93.99
2017-01-18T01:33:18.299Z,93.84
2017-01-18T01:34:19.057Z,93.84
2017-01-18T01:35:19.796Z,93.7
2017-01-18T01:36:20.551Z,93.32
2017-01-18T01:37:21.289Z,92.9
2017-01-18T01:38:22.052Z,93.28
2017-01-18T01:39:22.804Z,93.09
2017-01-18T01:40:23.602Z,92.99
2017-01-18T01:41:24.357Z,93.61
2017-01-18T01:42:25.097Z,93.09
2017-01-18T01:43:25.846Z,93.09
2017-01-18T01:44:26.591Z,93.37
2017-01-18T01:45:27.352Z,92.99
2017-01-18T01:46:28.169Z,93.37
2017-01-18T01:47:28.899Z,93.66
2017-01-18T01:48:29.647Z,93.66
2017-01-18T01:49:30.407Z,93.66
2017-01-18T01:50:31.189Z,93.56
2017-01-18T01:51:31.985Z,93.56
2017-01-18T01:52:32.749Z,93.84
2017-01-18T01:53:33.503Z,94.7
2017-01-18T01:54:34.252Z,94.79
2017-01-18T01:55:35.020Z,94.51
2017-01-18T01:56:35.786Z,94.03
2017-01-18T01:57:36.565Z,93.66
2017-01-18T01:58:37.311Z,93.66
2017-01-18T01:59:38.075Z,93.75
2017-01-18T02:00:38.854Z,94.41
2017-01-18T02:01:39.604Z,94.32
2017-01-18T02:02:40.398Z,94.41
2017-01-18T02:03:41.148Z,93.75
2017-01-18T02:04:41.901Z,94.7
2017-01-18T02:05:42.642Z,94.13
2017-01-18T02:06:43.392Z,94.32
2017-01-18T02:07:44.143Z,94.32
2017-01-18T02:08:44.885Z,94.22
2017-01-18T02:09:45.638Z,93.75
2017-01-18T02:10:46.387Z,94.32
2017-01-18T02:11:47.139Z,94.03
2017-01-18T02:12:47.900Z,94.6
2017-01-18T02:13:48.650Z,94.03
2017-01-18T02:14:49.408Z,94.13
2017-01-18T02:15:50.173Z,94.79
2017-01-18T02:16:50.934Z,94.7
2017-01-18T02:17:51.751Z,94.51
2017-01-18T02:18:52.495Z,94.41
2017-01-18T02:19:53.289Z,94.51
2017-01-18T02:20:54.054Z,94.6
2017-01-18T02:21:54.825Z,95.17
2017-01-18T02:22:55.608Z,95.07
2017-01-18T02:23:56.359Z,94.98
2017-01-18T02:24:57.116Z,95.36
2017-01-18T02:25:57.870Z,95.64
2017-01-18T02:26:58.651Z,95.17
2017-01-18T02:27:59.396Z,95.17
2017-01-18T02:29:00.171Z,94.98
2017-01-18T02:30:00.939Z,95.73
2017-01-18T02:31:01.699Z,94.93
2017-01-18T02:32:02.444Z,95.73
2017-01-18T02:33:03.243Z,95.83
2017-01-18T02:34:04.014Z,95.12
2017-01-18T02:35:04.762Z,95.78
2017-01-18T02:36:05.512Z,95.59
2017-01-18T02:37:06.270Z,96.25
2017-01-18T02:38:07.015Z,96.16
2017-01-18T02:39:07.759Z,96.02
2017-01-18T02:40:08.506Z,95.83
2017-01-18T02:41:09.245Z,95.54
2017-01-18T02:42:10.045Z,95.17
2017-01-18T02:43:10.814Z,94.98
2017-01-18T02:44:11.570Z,94.98
2017-01-18T02:45:12.333Z,95.07
2017-01-18T02:46:13.100Z,94.98
2017-01-18T02:47:13.867Z,94.98
2017-01-18T02:48:14.628Z,94.7
2017-01-18T02:49:15.380Z,94.7
2017-01-18T02:50:16.120Z,94.7
2017-01-18T02:51:16.873Z,94.51
2017-01-18T02:52:17.606Z,94.6
2017-01-18T02:53:18.362Z,94.98
2017-01-18T02:54:19.112Z,94.51
2017-01-18T02:55:19.872Z,94.51
2017-01-18T02:56:20.620Z,94.6
2017-01-18T02:57:21.378Z,94.6
2017-01-18T02:58:22.118Z,94.13
2017-01-18T02:59:22.886Z,94.79
2017-01-18T03:00:23.640Z,94.41
2017-01-18T03:01:24.379Z,93.94
2017-01-18T03:02:25.151Z,94.6
2017-01-18T03:03:25.903Z,94.03
2017-01-18T03:04:26.663Z,94.13
2017-01-18T03:05:27.417Z,94.51
2017-01-18T03:06:28.161Z,94.51
2017-01-18T03:07:28.907Z,94.51
2017-01-18T03:08:29.659Z,94.51
2017-01-18T03:09:30.400Z,94.6
2017-01-18T03:10:31.162Z,94.89
2017-01-18T03:11:31.905Z,95.17
2017-01-18T03:12:32.667Z,94.79
2017-01-18T03:13:33.412Z,95.07
2017-01-18T03:14:34.151Z,94.89
2017-01-18T03:15:34.903Z,94.98
2017-01-18T03:16:35.638Z,94.6
2017-01-18T03:17:36.398Z,94.7
2017-01-18T03:18:37.162Z,95.26
2017-01-18T03:19:37.899Z,94.6
2017-01-18T03:20:38.670Z,95.07
2017-01-18T03:21:39.431Z,94.51
2017-01-18T03:22:40.188Z,94.51
2017-01-18T03:23:40.944Z,95.17
2017-01-18T03:24:41.716Z,95.07
2017-01-18T03:25:42.449Z,94.98
2017-01-18T03:26:43.200Z,95.26
2017-01-18T03:27:43.966Z,94.7
2017-01-18T03:28:44.706Z,94.6
2017-01-18T03:29:45.467Z,94.7
2017-01-18T03:30:46.223Z,94.6
2017-01-18T03:31:46.966Z,94.79
2017-01-18T03:32:47.717Z,95.07
2017-01-18T03:33:48.469Z,94.6
2017-01-18T03:34:49.223Z,95.17
2017-01-18T03:35:49.986Z,94.51
2017-01-18T03:36:50.702Z,94.6
2017-01-18T03:37:51.480Z,94.98
2017-01-18T03:38:52.230Z,94.6
2017-01-18T03:39:52.988Z,95.26
2017-01-18T03:40:53.714Z,94.89
2017-01-18T03:41:54.460Z,94.89
2017-01-18T03:42:55.207Z,94.98
2017-01-18T03:43:55.971Z,94.98
2017-01-18T03:44:56.732Z,94.89
2017-01-18T03:45:57.496Z,95.07
2017-01-18T03:46:58.271Z,94.89
2017-01-18T03:47:59.016Z,95.26
2017-01-18T03:48:59.776Z,95.07
2017-01-18T03:50:00.527Z,95.12
2017-01-18T03:51:01.299Z,95.17
2017-01-18T03:52:02.047Z,94.98
2017-01-18T03:53:02.790Z,95.03
2017-01-18T03:54:03.544Z,95.26
2017-01-18T03:55:04.316Z,95.26
2017-01-18T03:56:05.087Z,94.84
2017-01-18T03:57:05.844Z,95.07
2017-01-18T03:58:06.602Z,94.51
2017-01-18T03:59:07.360Z,94.56
2017-01-18T04:00:08.131Z,94.51
2017-01-18T04:01:08.876Z,94.46
2017-01-18T04:02:09.647Z,95.12
2017-01-18T04:03:10.407Z,95.07
2017-01-18T04:04:11.171Z,95.17
2017-01-18T04:08:26.599Z,94.32
2017-01-18T04:09:27.350Z,94.7
2017-01-18T04:10:28.123Z,94.6
2017-01-18T04:11:28.861Z,94.13
2017-01-18T04:12:29.619Z,93.94
2017-01-18T04:13:30.360Z,94.13
2017-01-18T04:14:31.124Z,93.84
2017-01-18T04:15:31.879Z,93.66
2017-01-18T04:16:32.631Z,93.47
2017-01-18T04:17:33.391Z,93.66
2017-01-18T04:18:34.194Z,93.18
2017-01-18T04:19:34.942Z,93.09
2017-01-18T04:20:35.707Z,93.09
2017-01-18T04:21:36.457Z,92.99
2017-01-18T04:22:37.217Z,93.28
2017-01-18T04:23:37.995Z,93.09
2017-01-18T04:24:38.751Z,93.28
2017-01-18T04:25:39.499Z,93.84
2017-01-18T04:26:40.253Z,93.47
2017-01-18T04:27:40.987Z,93.37
2017-01-18T04:28:41.733Z,92.99
2017-01-18T04:29:42.499Z,93.56
2017-01-18T04:30:43.242Z,93.28
2017-01-18T04:31:43.986Z,93.56
2017-01-18T04:32:44.747Z,93.28
2017-01-18T04:33:45.517Z,93.47
2017-01-18T04:34:46.314Z,93.56
2017-01-18T04:35:47.108Z,92.9
2017-01-18T04:36:47.860Z,92.99
2017-01-18T04:37:48.610Z,93.09
2017-01-18T04:38:49.366Z,92.9
2017-01-18T04:39:50.118Z,93.09
2017-01-18T04:40:50.866Z,92.99
2017-01-18T04:41:51.642Z,93.56
2017-01-18T04:42:52.411Z,92.99
2017-01-18T04:43:53.159Z,92.8
2017-01-18T04:44:53.921Z,93.09
2017-01-18T04:45:54.684Z,92.99
2017-01-18T04:46:55.429Z,92.71
2017-01-18T04:47:56.177Z,93.09
2017-01-18T04:48:56.925Z,92.99
2017-01-18T04:49:57.682Z,92.14
2017-01-18T04:50:58.477Z,91.86
2017-01-18T04:51:59.238Z,92.05
2017-01-18T04:52:59.973Z,91.86
2017-01-18T04:54:00.725Z,91.67
2017-01-18T04:55:01.483Z,92.14
2017-01-18T04:56:02.223Z,92.05
2017-01-18T04:57:02.978Z,91.96
2017-01-18T04:58:03.728Z,91.67
2017-01-18T04:59:04.481Z,92.24
2017-01-18T05:00:05.237Z,92.05
2017-01-18T05:01:06.003Z,92.24
2017-01-18T05:02:06.751Z,92.05
2017-01-18T05:03:07.503Z,91.96
2017-01-18T05:04:08.283Z,92.61
2017-01-18T05:05:09.039Z,92.52
2017-01-18T05:06:09.792Z,92.24
2017-01-18T05:07:10.560Z,92.24
2017-01-18T05:08:11.341Z,92.14
2017-01-18T05:09:12.104Z,92.24
2017-01-18T05:10:12.851Z,92.61
2017-01-18T05:11:13.605Z,92.52
2017-01-18T05:12:14.356Z,93.18
2017-01-18T05:13:15.119Z,93.09
2017-01-18T05:14:15.877Z,92.9
2017-01-18T05:15:16.641Z,92.99
2017-01-18T05:16:17.384Z,92.43
2017-01-18T05:17:18.119Z,92.52
2017-01-18T05:18:18.884Z,92.24
2017-01-18T05:19:19.641Z,92.24
2017-01-18T05:20:20.382Z,92.14
2017-01-18T05:21:21.140Z,91.67
2017-01-18T05:22:21.905Z,92.05
2017-01-18T05:23:22.665Z,92.14
2017-01-18T05:24:23.423Z,91.48
2017-01-18T05:25:24.202Z,91.86
2017-01-18T05:26:24.953Z,91.67
2017-01-18T05:27:25.698Z,91.96
2017-01-18T05:28:26.444Z,91.96
2017-01-18T05:29:27.188Z,92.24
2017-01-18T05:30:27.988Z,91.96
2017-01-18T05:31:28.750Z,91.96
2017-01-18T05:32:29.500Z,92.24
2017-01-18T05:33:30.261Z,92.33
2017-01-18T05:34:31.023Z,92.24
2017-01-18T05:35:31.782Z,91.48
2017-01-18T05:36:32.531Z,91.29
2017-01-18T05:37:33.270Z,91.01
2017-01-18T05:38:34.021Z,91.01
2017-01-18T05:39:34.762Z,90.91
2017-01-18T05:40:35.530Z,90.82
2017-01-18T05:41:36.266Z,91.01
2017-01-18T05:42:37.029Z,90.91
2017-01-18T05:43:37.805Z,90.91
2017-01-18T05:44:38.577Z,90.82
2017-01-18T05:45:39.334Z,91.39
2017-01-18T05:46:40.093Z,90.91
2017-01-18T05:47:40.841Z,91.39
2017-01-18T05:48:41.609Z,92.05
2017-01-18T05:49:42.375Z,91.58
2017-01-18T05:50:43.125Z,91.67
2017-01-18T05:51:43.875Z,91.86
2017-01-18T05:52:44.678Z,91.67
2017-01-18T05:53:45.438Z,91.77
2017-01-18T05:54:46.199Z,91.77
2017-01-18T05:55:46.951Z,91.77
2017-01-18T05:56:47.694Z,91.77
2017-01-18T05:57:48.463Z,91.96
2017-01-18T05:58:49.236Z,92.14
2017-01-18T05:59:50.006Z,92.33
2017-01-18T06:00:50.764Z,92.14
2017-01-18T06:01:51.521Z,91.96
2017-01-18T06:02:52.340Z,92.14
2017-01-18T06:03:53.093Z,92.24
2017-01-18T06:04:53.878Z,91.77
2017-01-18T06:05:54.615Z,91.86
2017-01-18T06:06:55.376Z,92.05
2017-01-18T06:07:56.134Z,91.96
2017-01-18T06:08:56.911Z,91.86
2017-01-18T06:09:57.650Z,92.05
2017-01-18T06:10:58.421Z,91.67
2017-01-18T06:11:59.204Z,91.86
2017-01-18T06:12:59.955Z,91.96
2017-01-18T06:14:00.733Z,92.05
2017-01-18T06:15:01.486Z,92.24
2017-01-18T06:16:02.263Z,92.05
2017-01-18T06:17:03.053Z,91.77
2017-01-18T06:18:03.810Z,91.77
2017-01-18T06:19:44.286Z,92.24
2017-01-18T06:20:45.036Z,91.77
2017-01-18T06:21:45.792Z,92.05
2017-01-18T06:22:46.556Z,91.96
2017-01-18T06:23:47.300Z,91.67
2017-01-18T06:24:48.049Z,91.67
2017-01-18T06:25:48.808Z,92.24
2017-01-18T06:26:49.560Z,92.24
2017-01-18T06:27:50.325Z,92.33
2017-01-18T06:28:51.087Z,92.24
2017-01-18T06:29:51.849Z,92.05
2017-01-18T06:30:52.604Z,91.67
2017-01-18T06:31:53.358Z,92.05
2017-01-18T06:32:54.115Z,91.77
2017-01-18T06:33:54.850Z,92.14
2017-01-18T06:34:55.631Z,91.67
2017-01-18T06:35:56.395Z,91.96
2017-01-18T06:36:57.207Z,92.24
2017-01-18T06:37:57.960Z,92.14
2017-01-18T06:38:58.709Z,91.67
2017-01-18T06:39:59.486Z,91.96
2017-01-18T06:41:00.220Z,91.86
2017-01-18T06:42:00.963Z,92.05
2017-01-18T06:43:01.732Z,91.67
2017-01-18T06:44:02.523Z,91.96
2017-01-18T06:45:03.283Z,91.96
2017-01-18T06:46:04.039Z,92.52
2017-01-18T06:47:04.784Z,92.33
2017-01-18T06:48:05.528Z,92.05
2017-01-18T06:49:06.333Z,91.67
2017-01-18T06:50:07.054Z,91.77
2017-01-18T06:51:07.793Z,92.14
2017-01-18T06:52:08.543Z,91.01
2017-01-18T06:53:09.324Z,91.39
2017-01-18T06:54:10.092Z,90.91
2017-01-18T06:55:10.852Z,91.2
2017-01-18T06:56:11.594Z,90.82
2017-01-18T06:57:12.361Z,91.1
2017-01-18T06:58:13.086Z,90.82
2017-01-18T06:59:13.843Z,90.82
2017-01-18T07:00:14.616Z,90.54
2017-01-18T07:01:15.366Z,90.73
2017-01-18T07:02:16.135Z,90.82
2017-01-18T07:03:16.888Z,90.86
2017-01-18T07:04:17.647Z,90.25
2017-01-18T07:05:18.435Z,90.35
2017-01-18T07:06:19.204Z,90.35
2017-01-18T07:07:20.015Z,90.25
2017-01-18T07:08:20.840Z,90.35
2017-01-18T07:09:21.600Z,90.35
2017-01-18T07:10:22.344Z,90.86
2017-01-18T07:11:23.101Z,91.1
2017-01-18T07:12:25.696Z,90.44
2017-01-18T07:13:26.444Z,90.25
2017-01-18T07:14:27.250Z,90.25
2017-01-18T07:15:27.995Z,90.25
2017-01-18T07:16:28.738Z,90.82
2017-01-18T07:17:29.506Z,91.29
2017-01-18T07:18:30.247Z,91.2
2017-01-18T07:19:31.017Z,91.01
2017-01-18T07:20:31.779Z,91.1
2017-01-18T07:21:32.511Z,91.39
2017-01-18T07:22:33.277Z,91.29
2017-01-18T07:23:34.012Z,91.86
2017-01-18T07:24:34.781Z,91.48
2017-01-18T07:25:35.589Z,91.67
2017-01-18T07:26:36.321Z,91.96
2017-01-18T07:27:37.075Z,91.77
2017-01-18T07:28:37.808Z,92.61
2017-01-18T07:29:38.552Z,91.86
2017-01-18T07:30:39.281Z,91.29
2017-01-18T07:31:40.028Z,91.39
2017-01-18T07:32:40.756Z,91.48
2017-01-18T07:33:41.490Z,91.01
2017-01-18T07:34:42.267Z,91.01
2017-01-18T07:35:43.010Z,91.1
2017-01-18T07:36:43.770Z,91.29
2017-01-18T07:37:44.532Z,91.48
2017-01-18T07:38:45.267Z,91.58
2017-01-18T07:39:45.984Z,91.01
2017-01-18T07:40:46.716Z,91.39
2017-01-18T07:41:47.468Z,91.1
2017-01-18T07:42:48.206Z,90.73
2017-01-18T07:43:48.936Z,91.29
2017-01-18T07:44:49.651Z,91.1
2017-01-18T07:45:50.380Z,90.73
2017-01-18T07:46:51.127Z,90.73
2017-01-18T07:47:51.872Z,91.39
2017-01-18T07:48:52.614Z,90.91
2017-01-18T07:49:53.384Z,91.39
2017-01-18T07:50:54.166Z,91.39
2017-01-18T07:51:54.911Z,91.1
2017-01-18T07:52:55.678Z,91.58
2017-01-18T07:53:56.408Z,91.29
2017-01-18T07:54:57.193Z,90.91
2017-01-18T07:55:57.939Z,91.2
2017-01-18T07:56:58.677Z,91.05
2017-01-18T07:57:59.405Z,90.82
2017-01-18T07:59:00.149Z,90.96
2017-01-18T08:00:00.899Z,90.3
2017-01-18T08:01:01.683Z,90.58
2017-01-18T08:02:02.424Z,90.11
2017-01-18T08:03:03.187Z,89.87
2017-01-18T08:04:03.957Z,90.25
2017-01-18T08:05:04.703Z,90.39
2017-01-18T08:06:05.452Z,90.44
2017-01-18T08:07:06.198Z,90.25
2017-01-18T08:08:06.935Z,91.01
2017-01-18T08:09:07.672Z,91.15
2017-01-18T08:10:08.417Z,90.3
2017-01-18T08:11:09.168Z,90.3
2017-01-18T08:12:09.924Z,90.2
2017-01-18T08:13:10.680Z,90.58
2017-01-18T08:14:11.420Z,89.73
2017-01-18T08:15:12.164Z,90.2
2017-01-18T08:16:12.915Z,90.2
2017-01-18T08:17:13.702Z,89.83
2017-01-18T08:18:14.426Z,90.01
2017-01-18T08:19:15.158Z,90.11
2017-01-18T08:20:15.894Z,89.69
2017-01-18T08:21:16.629Z,89.69
2017-01-18T08:22:17.364Z,90.11
2017-01-18T08:23:18.125Z,90.68
2017-01-18T08:24:18.881Z,90.86
2017-01-18T08:25:19.646Z,90.3
2017-01-18T08:26:20.447Z,90.86
2017-01-18T08:27:21.200Z,90.58
2017-01-18T08:28:21.955Z,90.49
2017-01-18T08:29:22.720Z,89.92
2017-01-18T08:30:23.474Z,89.92
2017-01-18T08:31:24.220Z,89.92
2017-01-18T08:32:24.966Z,90.11
2017-01-18T08:33:25.718Z,90.3
2017-01-18T08:34:26.455Z,90.49
2017-01-18T08:35:27.207Z,90.39
2017-01-18T08:36:27.935Z,89.92
2017-01-18T08:37:28.685Z,90.3
2017-01-18T08:38:29.433Z,90.01
2017-01-18T08:39:30.193Z,90.11
2017-01-18T08:40:30.940Z,89.73
2017-01-18T08:41:31.673Z,90.3
2017-01-18T08:42:32.433Z,90.58
2017-01-18T08:43:33.162Z,90.3
2017-01-18T08:44:33.889Z,90.68
2017-01-18T08:45:34.665Z,90.3
2017-01-18T08:46:35.429Z,89.54
2017-01-18T08:47:36.175Z,89.83
2017-01-18T08:48:36.902Z,89.64
2017-01-18T08:49:37.634Z,89.5
2017-01-18T08:50:38.394Z,90.44
2017-01-18T08:51:39.156Z,90.35
2017-01-18T08:52:39.937Z,90.91
2017-01-18T08:53:40.690Z,90.91
2017-01-18T08:54:41.415Z,91.05
2017-01-18T08:55:42.142Z,90.77
2017-01-18T08:56:42.886Z,90.49
2017-01-18T08:57:43.673Z,90.68
2017-01-18T08:58:44.426Z,90.96
2017-01-18T08:59:45.183Z,90.11
2017-01-18T09:00:45.908Z,90.2
2017-01-18T09:01:46.695Z,89.73
2017-01-18T09:02:47.477Z,89.26
2017-01-18T09:03:48.235Z,89.92
2017-01-18T09:04:48.971Z,90.11
2017-01-18T09:05:49.753Z,90.11
2017-01-18T09:06:50.544Z,90.11
2017-01-18T09:07:51.309Z,90.11
2017-01-18T09:08:52.068Z,90.3
2017-01-18T09:09:52.794Z,90.49
2017-01-18T09:10:53.542Z,90.49
2017-01-18T09:11:54.317Z,90.11
2017-01-18T09:12:55.094Z,89.83
2017-01-18T09:13:55.838Z,89.83
2017-01-18T09:14:56.589Z,89.17
2017-01-18T09:15:57.316Z,89.73
2017-01-18T09:16:58.066Z,89.83
2017-01-18T09:17:58.812Z,89.54
2017-01-18T09:18:59.550Z,89.83
2017-01-18T09:20:00.298Z,89.83
2017-01-18T09:21:01.039Z,89.64
2017-01-18T09:22:01.788Z,89.54
2017-01-18T09:23:02.557Z,89.83
2017-01-18T09:24:03.326Z,89.83
2017-01-18T09:25:04.057Z,90.01
2017-01-18T09:26:04.799Z,90.11
2017-01-18T09:27:05.527Z,89.92
2017-01-18T09:28:06.289Z,89.54
2017-01-18T09:29:07.033Z,89.73
2017-01-18T09:30:07.766Z,89.26
2017-01-18T09:31:08.505Z,89.07
2017-01-18T09:32:09.292Z,89.26
2017-01-18T09:33:10.043Z,88.98
2017-01-18T09:34:10.805Z,88.31
2017-01-18T09:35:11.578Z,88.41
2017-01-18T09:36:12.393Z,88.41
2017-01-18T09:37:13.116Z,88.12
2017-01-18T09:38:13.851Z,88.22
2017-01-18T09:39:14.613Z,88.12
2017-01-18T09:40:15.349Z,88.6
2017-01-18T09:41:16.098Z,88.6
2017-01-18T09:42:16.839Z,88.69
2017-01-18T09:43:17.573Z,88.31
2017-01-18T09:44:18.343Z,88.5
2017-01-18T09:45:19.103Z,88.5
2017-01-18T09:46:19.838Z,88.12
2017-01-18T09:47:20.607Z,87.93
2017-01-18T09:48:21.344Z,88.12
2017-01-18T09:49:22.183Z,88.41
2017-01-18T09:50:22.913Z,88.88
2017-01-18T09:51:23.672Z,88.22
2017-01-18T09:52:24.411Z,88.41
2017-01-18T09:53:25.174Z,88.22
2017-01-18T09:54:25.930Z,87.84
2017-01-18T09:55:26.688Z,87.84
2017-01-18T09:56:27.519Z,88.22
2017-01-18T09:57:28.249Z,87.84
2017-01-18T09:58:29.070Z,88.12
2017-01-18T09:59:29.860Z,88.22
2017-01-18T10:00:30.744Z,88.69
2017-01-18T10:01:31.515Z,88.6
2017-01-18T10:02:32.346Z,88.79
2017-01-18T10:03:33.093Z,89.45
2017-01-18T10:04:34.439Z,89.36
2017-01-18T10:05:35.186Z,89.36
2017-01-18T10:06:35.953Z,89.83
2017-01-18T10:07:36.709Z,89.64
2017-01-18T10:08:37.477Z,89.54
2017-01-18T10:09:38.219Z,89.17
2017-01-18T10:10:38.993Z,89.26
2017-01-18T10:11:39.761Z,89.26
2017-01-18T10:12:40.496Z,89.17
2017-01-18T10:13:41.257Z,89.26
2017-01-18T10:14:42.019Z,88.88
2017-01-18T10:15:42.778Z,88.6
2017-01-18T10:16:43.521Z,88.69
2017-01-18T10:17:44.273Z,89.17
2017-01-18T10:18:45.015Z,88.88
2017-01-18T10:19:45.759Z,88.88
2017-01-18T10:20:46.515Z,88.6
2017-01-18T10:21:47.323Z,88.6
2017-01-18T10:22:48.069Z,88.6
2017-01-18T10:23:48.829Z,89.26
2017-01-18T10:24:49.574Z,89.26
2017-01-18T10:25:50.322Z,89.17
2017-01-18T10:26:51.071Z,89.17
2017-01-18T10:27:51.802Z,88.88
2017-01-18T10:28:52.534Z,88.88
2017-01-18T10:29:53.266Z,88.79
2017-01-18T10:30:54.020Z,89.07
2017-01-18T10:31:54.766Z,88.98
2017-01-18T10:32:55.578Z,88.88
2017-01-18T10:33:56.334Z,89.17
2017-01-18T10:34:57.069Z,89.26
2017-01-18T10:35:57.811Z,88.98
2017-01-18T10:36:58.541Z,88.69
2017-01-18T10:37:59.280Z,88.69
2017-01-18T10:39:00.039Z,88.6
2017-01-18T10:40:00.779Z,87.74
2017-01-18T10:41:01.527Z,88.03
2017-01-18T10:42:02.301Z,88.12
2017-01-18T10:43:03.050Z,87.74
2017-01-18T10:44:03.785Z,88.12
2017-01-18T10:45:04.570Z,88.22
2017-01-18T10:46:05.338Z,88.12
2017-01-18T10:47:06.093Z,88.12
2017-01-18T10:48:06.825Z,88.12
2017-01-18T10:49:07.569Z,88.31
2017-01-18T10:50:08.328Z,88.22
2017-01-18T10:51:09.076Z,88.6
2017-01-18T10:52:09.826Z,88.12
2017-01-18T10:53:10.571Z,88.41
2017-01-18T10:54:11.302Z,88.41
2017-01-18T10:55:12.056Z,88.22
2017-01-18T10:56:12.799Z,88.6
2017-01-18T10:57:13.536Z,88.36
2017-01-18T10:58:14.242Z,88.26
2017-01-18T10:59:15.005Z,88.79
2017-01-18T11:00:15.886Z,87.88
2017-01-18T11:01:16.663Z,87.51
2017-01-18T11:02:17.397Z,87.13
2017-01-18T11:03:18.194Z,87.32
2017-01-18T11:04:18.923Z,87.13
2017-01-18T11:05:19.664Z,86.94
2017-01-18T11:06:20.414Z,86.99
2017-01-18T11:07:21.167Z,87.13
2017-01-18T11:08:21.923Z,87.04
2017-01-18T11:09:22.647Z,87.32
2017-01-18T11:10:23.385Z,87.08
2017-01-18T11:11:24.232Z,86.9
2017-01-18T11:12:24.980Z,86.61
2017-01-18T11:13:25.742Z,87.04
2017-01-18T11:14:26.473Z,87.04
2017-01-18T11:15:27.213Z,86.47
2017-01-18T11:16:27.955Z,86.66
2017-01-18T11:17:28.700Z,87.13
2017-01-18T11:18:29.459Z,86.66
2017-01-18T11:19:30.208Z,86.47
2017-01-18T11:20:30.964Z,85.99
2017-01-18T11:21:31.703Z,85.71
2017-01-18T11:22:32.435Z,86.09
2017-01-18T11:23:33.186Z,85.9
2017-01-18T11:24:33.928Z,86.47
2017-01-18T11:25:34.668Z,86.28
2017-01-18T11:26:35.423Z,85.8
2017-01-18T11:27:36.155Z,85.33
2017-01-18T11:28:36.924Z,85.61
2017-01-18T11:29:37.658Z,85.24
2017-01-18T11:30:38.418Z,84.86
2017-01-18T11:31:39.160Z,84.86
2017-01-18T11:32:39.922Z,84.67
2017-01-18T11:33:40.679Z,84.67
2017-01-18T11:34:41.420Z,84.1
2017-01-18T11:35:42.175Z,84.39
2017-01-18T11:36:42.950Z,84.29
2017-01-18T11:37:43.680Z,84.29
2017-01-18T11:38:44.468Z,83.72
2017-01-18T11:39:45.231Z,84.01
2017-01-18T11:40:46.005Z,83.91
2017-01-18T11:41:46.753Z,83.34
2017-01-18T11:42:47.492Z,82.97
2017-01-18T11:43:48.259Z,83.06
2017-01-18T11:44:49.040Z,83.25
2017-01-18T11:45:49.775Z,82.87
2017-01-18T11:46:50.547Z,82.78
2017-01-18T11:47:51.266Z,83.06
2017-01-18T11:48:52.030Z,82.97
2017-01-18T11:49:52.786Z,83.25
2017-01-18T11:50:53.531Z,83.63
2017-01-18T11:51:54.271Z,83.72
2017-01-18T11:52:55.015Z,82.68
2017-01-18T11:53:55.763Z,82.5
2017-01-18T11:54:56.517Z,82.68
2017-01-18T11:55:57.263Z,82.21
2017-01-18T11:56:57.992Z,82.31
2017-01-18T11:57:58.756Z,82.5
2017-01-18T11:58:59.487Z,82.21
2017-01-18T12:00:00.247Z,82.68
2017-01-18T12:01:00.993Z,82.4
2017-01-18T12:02:01.844Z,82.12
2017-01-18T12:03:02.601Z,82.68
2017-01-18T12:04:03.338Z,82.68
2017-01-18T12:05:04.069Z,82.87
2017-01-18T12:06:04.812Z,82.78
2017-01-18T12:07:05.564Z,82.5
2017-01-18T12:08:06.320Z,82.5
2017-01-18T12:09:07.101Z,83.72
2017-01-18T12:10:07.858Z,83.72
2017-01-18T12:11:08.601Z,82.78
2017-01-18T12:12:09.337Z,83.25
2017-01-18T12:13:10.086Z,83.4
2017-01-18T12:14:10.872Z,83.68
2017-01-18T12:15:11.640Z,83.72
2017-01-18T12:16:12.383Z,84.1
2017-01-18T12:17:13.125Z,84.01
2017-01-18T12:18:13.871Z,84.2
2017-01-18T12:19:14.612Z,83.91
2017-01-18T12:20:15.365Z,83.3
2017-01-18T12:21:16.142Z,84.44
2017-01-18T12:22:16.888Z,84.63
2017-01-18T12:23:17.615Z,84.34
2017-01-18T12:24:18.409Z,84.44
2017-01-18T12:25:19.145Z,84.63
2017-01-18T12:26:19.895Z,83.97
2017-01-18T12:27:20.625Z,84.25
2017-01-18T12:28:21.359Z,84.34
2017-01-18T12:29:22.107Z,84.25
2017-01-18T12:30:22.906Z,84.2
2017-01-18T12:31:23.731Z,84.01
2017-01-18T12:32:24.461Z,84.01
2017-01-18T12:33:25.207Z,83.91
2017-01-18T12:34:25.951Z,84.1
2017-01-18T12:35:26.683Z,84.29
2017-01-18T12:36:27.511Z,84.2
2017-01-18T12:37:28.247Z,84.2
2017-01-18T12:38:28.992Z,83.82
2017-01-18T12:39:29.730Z,84.2
2017-01-18T12:40:30.486Z,84.01
2017-01-18T12:41:31.289Z,83.72
2017-01-18T12:42:32.035Z,83.82
2017-01-18T12:43:32.790Z,83.63
2017-01-18T12:44:33.555Z,83.91
2017-01-18T12:45:34.331Z,84.39
2017-01-18T12:46:35.179Z,84.1
2017-01-18T12:47:35.964Z,84.01
2017-01-18T12:48:36.683Z,83.82
2017-01-18T12:49:37.425Z,83.25
2017-01-18T12:50:38.151Z,83.82
2017-01-18T12:51:38.896Z,84.29
2017-01-18T12:52:39.642Z,83.82
2017-01-18T12:53:40.472Z,83.91
2017-01-18T12:54:42.480Z,84.29
2017-01-18T12:55:42.046Z,83.82
2017-01-18T12:56:42.793Z,84.1
2017-01-18T12:57:43.582Z,84.39
2017-01-18T12:58:44.337Z,84.67
2017-01-18T12:59:45.221Z,84.39
2017-01-18T13:00:45.984Z,83.72
2017-01-18T13:01:46.771Z,84.2
2017-01-18T13:02:47.529Z,84.67
2017-01-18T13:03:48.329Z,84.39
2017-01-18T13:04:49.065Z,84.29
2017-01-18T13:05:49.812Z,84.95
2017-01-18T13:06:50.594Z,84.39
2017-01-18T13:07:51.347Z,84.29
2017-01-18T13:08:52.200Z,84.48
2017-01-18T13:09:52.949Z,84.39